Cuba, MO

9:59 PM CDT on August 21, 2014 (GMT -0500)
Rolla National | Change Station
CLOSE
Current Station
Airport
Location: Rolla,
Elevation: 1145 ft
Nearby Weather Stations

Elev 1145 ft 38.13 °N, 91.77 °W | Updated 1 hour ago

Clear
Clear
83 °F
Feels Like 86 °F
N
9
Wind Variable Wind from South

Today
High -- | Low -- °F
--% Chance of Precip.
Yesterday
High -- | Low -- °F
Precip. -- in
6:25 AM 7:50 PM
Waning Crescent, 11% visible
Pressure 29.90 in
Visibility 10.0 miles
Clouds Clear
Heat Index 86 °F
Dew Point 69 °F
Humidity 63%
Rainfall 0.00 in
Snow Depth Not available.
UV 0 out of 12
Pollen 10.60 out of 12
Air Quality Not available.
Flu Activity Not available.
METAR KVIH 220153Z AUTO 18008KT 10SM CLR 28/21 A2994 RMK AO2 SLP124 T02830206

More Conditions Fewer Conditions

Pressure 29.90 in
Visibility 10.0 miles
Clouds Clear
Heat Index 86 °F
Dew Point 69 °F
Humidity 63%
Rainfall 0.00 in
Snow Depth Not available.
UV 0 out of 12
Pollen 10.60 out of 12
Air Quality Not available.
Flu Activity Not available.
METAR KVIH 220153Z AUTO 18008KT 10SM CLR 28/21 A2994 RMK AO2 SLP124 T02830206

More Conditions Fewer Conditions

10-Day Weather Forecast

Almanac

Astronomy

Aug. 21, 2014 Rise Set
Actual Time 6:25 AM CDT 7:50 PM CDT
Civil Twilight 5:58 AM CDT 8:18 PM CDT
Nautical Twilight 5:25 AM CDT 8:51 PM CDT
Astronomical Twilight 4:50 AM CDT 9:26 PM CDT
Moon 2:58 AM CDT (8/21) 5:18 PM CDT (8/21)
Length of Visible Light 14h 20m
Length of Day
13h 25m
Tomorrow will be 2m 15s shorter.
Waning Crescent, 11% of the Moon is Illuminated
Today
Waning Crescent
Aug 25
New
Sep 2
First Quarter
Sep 8
Full
Sep 15
Last Quarter

Today's Extremes

State Highs State Lows

Community

WunderPhotos

Upload Photos

1,746,109 photos uploaded!

WunderBlogs® & News

Nearby

Snow Depth

Station Depth Elevation
No new snow has been reported.

Earthquake Activity

City Distance Mag. Time & Date
No recent earthquake activity has been reported nearby.
Minimum magnitude displayed is 2.5.

Coastal Water Temperatures

Place Temperature
No Stations Reporting

Nearby Weather Stations